<?xml version="1.0" encoding="UTF-8" standalone="no" ?>
<gpx xmlns="http://www.topografix.com/GPX/1/1" xmlns:xsi="http://www.w3.org/2001/XMLSchema-instance" xsi:schemaLocation="http://www.topografix.com/GPX/1/1 http://www.topografix.com/GPX/1/1/gpx.xsd" version="1.1" creator="VisuGPX - https://www.visugpx.com">
  <metadata>
    <name>Vélo - Brétignolles - La Salaire 27/05/2022</name>
  </metadata>
  <trk>
    <name><![CDATA[Vélo - Brétignolles - La Salaire 27/05/2022]]></name>
    <extensions>
      <line xmlns="http://www.topografix.com/GPX/gpx_style/0/2">
        <color>0000FF</color>
        <width>4</width>
          <extensions>
            <sens>1</sens>
          </extensions>
      </line>
    </extensions>
    <trkseg>
      <trkpt lat="46.6367" lon="-1.87661">
        <ele>17.269883456687</ele>
        <time>2022-05-27T11:27:22Z</time>
      </trkpt>
      <trkpt lat="46.63662" lon="-1.87681">
        <ele>16.269290878056</ele>
        <time>2022-05-27T11:28:19Z</time>
      </trkpt>
      <trkpt lat="46.63651" lon="-1.87716">
        <ele>14.268315553162</ele>
        <time>2022-05-27T11:28:28Z</time>
      </trkpt>
      <trkpt lat="46.6363" lon="-1.87716">
        <ele>16.267876609823</ele>
        <time>2022-05-27T11:28:37Z</time>
      </trkpt>
      <trkpt lat="46.63593" lon="-1.87707">
        <ele>19.267351905476</ele>
        <time>2022-05-27T11:28:46Z</time>
      </trkpt>
      <trkpt lat="46.63553" lon="-1.87702">
        <ele>20.26667596979</ele>
        <time>2022-05-27T11:28:55Z</time>
      </trkpt>
      <trkpt lat="46.63509" lon="-1.87696">
        <ele>20.265944612403</ele>
        <time>2022-05-27T11:29:04Z</time>
      </trkpt>
      <trkpt lat="46.63476" lon="-1.87738">
        <ele>20.264399240021</ele>
        <time>2022-05-27T11:29:14Z</time>
      </trkpt>
      <trkpt lat="46.63474" lon="-1.87808">
        <ele>19.262834704689</ele>
        <time>2022-05-27T11:29:23Z</time>
      </trkpt>
      <trkpt lat="46.63458" lon="-1.87881">
        <ele>17.260953613972</ele>
        <time>2022-05-27T11:29:32Z</time>
      </trkpt>
      <trkpt lat="46.63438" lon="-1.8794">
        <ele>17.259306344968</ele>
        <time>2022-05-27T11:29:41Z</time>
      </trkpt>
      <trkpt lat="46.63389" lon="-1.87933">
        <ele>19.258505132461</ele>
        <time>2022-05-27T11:29:50Z</time>
      </trkpt>
      <trkpt lat="46.63336" lon="-1.8793">
        <ele>18.257558971759</ele>
        <time>2022-05-27T11:29:59Z</time>
      </trkpt>
      <trkpt lat="46.6328" lon="-1.87919">
        <ele>18.25668314393</ele>
        <time>2022-05-27T11:30:08Z</time>
      </trkpt>
      <trkpt lat="46.63227" lon="-1.87915">
        <ele>18.255755462237</ele>
        <time>2022-05-27T11:30:17Z</time>
      </trkpt>
      <trkpt lat="46.63187" lon="-1.87948">
        <ele>18.254299741607</ele>
        <time>2022-05-27T11:30:27Z</time>
      </trkpt>
      <trkpt lat="46.63161" lon="-1.87999">
        <ele>17.252716218677</ele>
        <time>2022-05-27T11:30:36Z</time>
      </trkpt>
      <trkpt lat="46.63155" lon="-1.8807">
        <ele>16.251097960862</ele>
        <time>2022-05-27T11:30:45Z</time>
      </trkpt>
      <trkpt lat="46.63136" lon="-1.88117">
        <ele>15.249752504157</ele>
        <time>2022-05-27T11:30:55Z</time>
      </trkpt>
      <trkpt lat="46.63117" lon="-1.88089">
        <ele>14.249993568576</ele>
        <time>2022-05-27T11:31:04Z</time>
      </trkpt>
      <trkpt lat="46.63092" lon="-1.88057">
        <ele>14.25016789962</ele>
        <time>2022-05-27T11:31:14Z</time>
      </trkpt>
      <trkpt lat="46.63066" lon="-1.88025">
        <ele>14.250350881025</ele>
        <time>2022-05-27T11:31:23Z</time>
      </trkpt>
      <trkpt lat="46.63042" lon="-1.8799">
        <ele>15.250610198193</ele>
        <time>2022-05-27T11:31:32Z</time>
      </trkpt>
      <trkpt lat="46.63026" lon="-1.8795">
        <ele>15.251125215323</ele>
        <time>2022-05-27T11:31:41Z</time>
      </trkpt>
      <trkpt lat="46.63006" lon="-1.87885">
        <ele>13.252099808839</ele>
        <time>2022-05-27T11:31:50Z</time>
      </trkpt>
      <trkpt lat="46.62989" lon="-1.8781">
        <ele>13.253329669265</ele>
        <time>2022-05-27T11:32:00Z</time>
      </trkpt>
      <trkpt lat="46.62963" lon="-1.87748">
        <ele>13.254129224553</ele>
        <time>2022-05-27T11:32:09Z</time>
      </trkpt>
      <trkpt lat="46.62923" lon="-1.87705">
        <ele>13.254230663331</ele>
        <time>2022-05-27T11:32:19Z</time>
      </trkpt>
      <trkpt lat="46.62886" lon="-1.87655">
        <ele>10.254513171694</ele>
        <time>2022-05-27T11:32:28Z</time>
      </trkpt>
      <trkpt lat="46.62882" lon="-1.87601">
        <ele>10.255544648556</ele>
        <time>2022-05-27T11:32:37Z</time>
      </trkpt>
      <trkpt lat="46.62864" lon="-1.87564">
        <ele>9.2559630683526</ele>
        <time>2022-05-27T11:32:46Z</time>
      </trkpt>
      <trkpt lat="46.62827" lon="-1.87507">
        <ele>7.2563922192141</ele>
        <time>2022-05-27T11:32:56Z</time>
      </trkpt>
      <trkpt lat="46.62788" lon="-1.87477">
        <ele>8.2562388025023</ele>
        <time>2022-05-27T11:33:05Z</time>
      </trkpt>
      <trkpt lat="46.6274" lon="-1.87447">
        <ele>8.2558828204296</ele>
        <time>2022-05-27T11:33:15Z</time>
      </trkpt>
      <trkpt lat="46.62697" lon="-1.87414">
        <ele>10.255675814059</ele>
        <time>2022-05-27T11:33:24Z</time>
      </trkpt>
      <trkpt lat="46.62663" lon="-1.87371">
        <ele>8.2558769689816</ele>
        <time>2022-05-27T11:33:33Z</time>
      </trkpt>
      <trkpt lat="46.62626" lon="-1.87362">
        <ele>6.2553124364414</ele>
        <time>2022-05-27T11:33:42Z</time>
      </trkpt>
      <trkpt lat="46.62597" lon="-1.87359">
        <ele>6.2547691287331</ele>
        <time>2022-05-27T11:33:51Z</time>
      </trkpt>
      <trkpt lat="46.6256" lon="-1.87372">
        <ele>7.2537857880866</ele>
        <time>2022-05-27T11:34:00Z</time>
      </trkpt>
      <trkpt lat="46.62524" lon="-1.87367">
        <ele>10.253143568246</ele>
        <time>2022-05-27T11:34:09Z</time>
      </trkpt>
      <trkpt lat="46.62479" lon="-1.8736">
        <ele>11.252378176982</ele>
        <time>2022-05-27T11:34:19Z</time>
      </trkpt>
      <trkpt lat="46.62433" lon="-1.87362">
        <ele>12.251400287516</ele>
        <time>2022-05-27T11:34:29Z</time>
      </trkpt>
      <trkpt lat="46.62393" lon="-1.8735">
        <ele>13.250827892612</ele>
        <time>2022-05-27T11:34:38Z</time>
      </trkpt>
      <trkpt lat="46.62358" lon="-1.8734">
        <ele>13.250329944007</ele>
        <time>2022-05-27T11:34:47Z</time>
      </trkpt>
      <trkpt lat="46.62311" lon="-1.8732">
        <ele>13.249776522144</ele>
        <time>2022-05-27T11:34:56Z</time>
      </trkpt>
      <trkpt lat="46.62273" lon="-1.87298">
        <ele>12.249424197558</ele>
        <time>2022-05-27T11:35:06Z</time>
      </trkpt>
      <trkpt lat="46.62232" lon="-1.87272">
        <ele>11.249108134305</ele>
        <time>2022-05-27T11:35:15Z</time>
      </trkpt>
      <trkpt lat="46.62189" lon="-1.87241">
        <ele>12.248834695115</ele>
        <time>2022-05-27T11:35:24Z</time>
      </trkpt>
      <trkpt lat="46.62151" lon="-1.87218">
        <ele>12.248494804614</ele>
        <time>2022-05-27T11:35:34Z</time>
      </trkpt>
      <trkpt lat="46.62103" lon="-1.87214">
        <ele>10.24758395298</ele>
        <time>2022-05-27T11:35:43Z</time>
      </trkpt>
      <trkpt lat="46.62049" lon="-1.87239">
        <ele>11.246010808883</ele>
        <time>2022-05-27T11:35:53Z</time>
      </trkpt>
      <trkpt lat="46.62002" lon="-1.87229">
        <ele>11.245253599389</ele>
        <time>2022-05-27T11:36:02Z</time>
      </trkpt>
      <trkpt lat="46.6195" lon="-1.87199">
        <ele>11.244761705931</ele>
        <time>2022-05-27T11:36:12Z</time>
      </trkpt>
      <trkpt lat="46.61905" lon="-1.8717">
        <ele>11.244389626225</ele>
        <time>2022-05-27T11:36:21Z</time>
      </trkpt>
      <trkpt lat="46.61854" lon="-1.87138">
        <ele>11.243932777592</ele>
        <time>2022-05-27T11:36:31Z</time>
      </trkpt>
      <trkpt lat="46.61814" lon="-1.8709">
        <ele>10.244032542818</ele>
        <time>2022-05-27T11:36:40Z</time>
      </trkpt>
      <trkpt lat="46.61771" lon="-1.87064">
        <ele>10.243617485148</ele>
        <time>2022-05-27T11:36:49Z</time>
      </trkpt>
      <trkpt lat="46.61733" lon="-1.87023">
        <ele>9.2436272821219</ele>
        <time>2022-05-27T11:36:58Z</time>
      </trkpt>
      <trkpt lat="46.61703" lon="-1.86978">
        <ele>11.243820633628</ele>
        <time>2022-05-27T11:37:07Z</time>
      </trkpt>
      <trkpt lat="46.61668" lon="-1.86931">
        <ele>9.2439858480486</ele>
        <time>2022-05-27T11:37:16Z</time>
      </trkpt>
      <trkpt lat="46.61645" lon="-1.86864">
        <ele>7.2447483003355</ele>
        <time>2022-05-27T11:37:25Z</time>
      </trkpt>
      <trkpt lat="46.61629" lon="-1.86785">
        <ele>4.2458781884201</ele>
        <time>2022-05-27T11:37:35Z</time>
      </trkpt>
      <trkpt lat="46.61617" lon="-1.86714">
        <ele>3.2469447757191</ele>
        <time>2022-05-27T11:37:44Z</time>
      </trkpt>
      <trkpt lat="46.61602" lon="-1.86631">
        <ele>4.2481703401009</ele>
        <time>2022-05-27T11:37:54Z</time>
      </trkpt>
      <trkpt lat="46.61608" lon="-1.86566">
        <ele>5.2494923431532</ele>
        <time>2022-05-27T11:38:03Z</time>
      </trkpt>
      <trkpt lat="46.61597" lon="-1.86501">
        <ele>6.2504709776247</ele>
        <time>2022-05-27T11:38:13Z</time>
      </trkpt>
      <trkpt lat="46.61609" lon="-1.86455">
        <ele>5.2515848342673</ele>
        <time>2022-05-27T11:38:23Z</time>
      </trkpt>
      <trkpt lat="46.61585" lon="-1.86405">
        <ele>9.2520079697353</ele>
        <time>2022-05-27T11:38:32Z</time>
      </trkpt>
      <trkpt lat="46.61593" lon="-1.86368">
        <ele>9.2528642779592</ele>
        <time>2022-05-27T11:38:41Z</time>
      </trkpt>
      <trkpt lat="46.61626" lon="-1.8634">
        <ele>7.2540987824601</ele>
        <time>2022-05-27T11:38:51Z</time>
      </trkpt>
      <trkpt lat="46.61614" lon="-1.86297">
        <ele>11.254649038928</ele>
        <time>2022-05-27T11:39:00Z</time>
      </trkpt>
      <trkpt lat="46.616" lon="-1.86251">
        <ele>8.2551713063542</ele>
        <time>2022-05-27T11:39:09Z</time>
      </trkpt>
      <trkpt lat="46.61586" lon="-1.862">
        <ele>8.2558117621127</ele>
        <time>2022-05-27T11:39:18Z</time>
      </trkpt>
      <trkpt lat="46.61542" lon="-1.86195">
        <ele>9.254944677189</ele>
        <time>2022-05-27T11:39:28Z</time>
      </trkpt>
      <trkpt lat="46.61507" lon="-1.86157">
        <ele>10.25488258944</ele>
        <time>2022-05-27T11:39:37Z</time>
      </trkpt>
      <trkpt lat="46.61468" lon="-1.86153">
        <ele>10.254087838224</ele>
        <time>2022-05-27T11:39:47Z</time>
      </trkpt>
      <trkpt lat="46.6145" lon="-1.86089">
        <ele>6.2548530404159</ele>
        <time>2022-05-27T11:39:57Z</time>
      </trkpt>
      <trkpt lat="46.61439" lon="-1.86018">
        <ele>4.2559065757914</ele>
        <time>2022-05-27T11:40:06Z</time>
      </trkpt>
      <trkpt lat="46.6143" lon="-1.85953">
        <ele>3.2568840945725</ele>
        <time>2022-05-27T11:40:15Z</time>
      </trkpt>
      <trkpt lat="46.61418" lon="-1.85892">
        <ele>0.25773680965202</ele>
        <time>2022-05-27T11:40:24Z</time>
      </trkpt>
      <trkpt lat="46.61401" lon="-1.85898">
        <ele>1.2572382071814</ele>
        <time>2022-05-27T11:40:35Z</time>
      </trkpt>
      <trkpt lat="46.61382" lon="-1.85964">
        <ele>1.2556023350423</ele>
        <time>2022-05-27T11:40:45Z</time>
      </trkpt>
      <trkpt lat="46.6135" lon="-1.8603">
        <ele>-1.7463136225105</ele>
        <time>2022-05-27T11:40:54Z</time>
      </trkpt>
      <trkpt lat="46.61318" lon="-1.86068">
        <ele>0.25227910937571</ele>
        <time>2022-05-27T11:41:03Z</time>
      </trkpt>
      <trkpt lat="46.6129" lon="-1.86049">
        <ele>2.2520238945878</ele>
        <time>2022-05-27T11:41:12Z</time>
      </trkpt>
      <trkpt lat="46.6128" lon="-1.86031">
        <ele>3.2521075653593</ele>
        <time>2022-05-27T11:41:26Z</time>
      </trkpt>
      <trkpt lat="46.61259" lon="-1.85994">
        <ele>5.2523147722878</ele>
        <time>2022-05-27T11:41:36Z</time>
      </trkpt>
      <trkpt lat="46.61245" lon="-1.85949">
        <ele>7.2527891272825</ele>
        <time>2022-05-27T11:41:46Z</time>
      </trkpt>
      <trkpt lat="46.6124" lon="-1.85895">
        <ele>9.2536643136712</ele>
        <time>2022-05-27T11:41:55Z</time>
      </trkpt>
      <trkpt lat="46.61217" lon="-1.85827">
        <ele>8.254361944663</ele>
        <time>2022-05-27T11:42:04Z</time>
      </trkpt>
      <trkpt lat="46.61208" lon="-1.85772">
        <ele>8.255129216774</ele>
        <time>2022-05-27T11:42:14Z</time>
      </trkpt>
      <trkpt lat="46.61201" lon="-1.85723">
        <ele>6.2558636499571</ele>
        <time>2022-05-27T11:42:23Z</time>
      </trkpt>
      <trkpt lat="46.61181" lon="-1.85671">
        <ele>7.256345885244</ele>
        <time>2022-05-27T11:42:32Z</time>
      </trkpt>
      <trkpt lat="46.61173" lon="-1.85614">
        <ele>7.2571825713536</ele>
        <time>2022-05-27T11:42:41Z</time>
      </trkpt>
      <trkpt lat="46.61158" lon="-1.85557">
        <ele>9.2578525412202</ele>
        <time>2022-05-27T11:42:51Z</time>
      </trkpt>
      <trkpt lat="46.61121" lon="-1.85508">
        <ele>13.257876888258</ele>
        <time>2022-05-27T11:43:01Z</time>
      </trkpt>
      <trkpt lat="46.61088" lon="-1.85478">
        <ele>16.257625614086</ele>
        <time>2022-05-27T11:43:10Z</time>
      </trkpt>
      <trkpt lat="46.61052" lon="-1.85445">
        <ele>14.257369780841</ele>
        <time>2022-05-27T11:43:19Z</time>
      </trkpt>
      <trkpt lat="46.60998" lon="-1.85416">
        <ele>14.256618787329</ele>
        <time>2022-05-27T11:43:29Z</time>
      </trkpt>
      <trkpt lat="46.6094" lon="-1.85388">
        <ele>14.255771778165</ele>
        <time>2022-05-27T11:43:39Z</time>
      </trkpt>
      <trkpt lat="46.60886" lon="-1.85362">
        <ele>15.254953317589</ele>
        <time>2022-05-27T11:43:48Z</time>
      </trkpt>
      <trkpt lat="46.60842" lon="-1.85332">
        <ele>12.254450037303</ele>
        <time>2022-05-27T11:43:57Z</time>
      </trkpt>
      <trkpt lat="46.6079" lon="-1.85279">
        <ele>10.254140381443</ele>
        <time>2022-05-27T11:44:07Z</time>
      </trkpt>
      <trkpt lat="46.60754" lon="-1.85247">
        <ele>10.253842598986</ele>
        <time>2022-05-27T11:44:16Z</time>
      </trkpt>
      <trkpt lat="46.60721" lon="-1.85228">
        <ele>11.253397884008</ele>
        <time>2022-05-27T11:44:26Z</time>
      </trkpt>
      <trkpt lat="46.60683" lon="-1.85208">
        <ele>11.252848270218</ele>
        <time>2022-05-27T11:44:35Z</time>
      </trkpt>
      <trkpt lat="46.6063" lon="-1.85183">
        <ele>12.25200121594</ele>
        <time>2022-05-27T11:44:44Z</time>
      </trkpt>
      <trkpt lat="46.60572" lon="-1.85158">
        <ele>13.251046744176</ele>
        <time>2022-05-27T11:44:53Z</time>
      </trkpt>
      <trkpt lat="46.60516" lon="-1.85131">
        <ele>13.250179993605</ele>
        <time>2022-05-27T11:45:02Z</time>
      </trkpt>
      <trkpt lat="46.60457" lon="-1.85103">
        <ele>13.249257405066</ele>
        <time>2022-05-27T11:45:12Z</time>
      </trkpt>
      <trkpt lat="46.60405" lon="-1.8508">
        <ele>14.248382419691</ele>
        <time>2022-05-27T11:45:21Z</time>
      </trkpt>
      <trkpt lat="46.60353" lon="-1.85058">
        <ele>13.247527718912</ele>
        <time>2022-05-27T11:45:30Z</time>
      </trkpt>
      <trkpt lat="46.60298" lon="-1.85025">
        <ele>12.246727081154</ele>
        <time>2022-05-27T11:45:39Z</time>
      </trkpt>
      <trkpt lat="46.60267" lon="-1.85013">
        <ele>11.246199276083</ele>
        <time>2022-05-27T11:45:48Z</time>
      </trkpt>
      <trkpt lat="46.60262" lon="-1.84986">
        <ele>7.2465291463154</ele>
        <time>2022-05-27T11:45:57Z</time>
      </trkpt>
      <trkpt lat="46.60271" lon="-1.84929">
        <ele>7.2476694707923</ele>
        <time>2022-05-27T11:46:06Z</time>
      </trkpt>
      <trkpt lat="46.60282" lon="-1.84865">
        <ele>6.248984291036</ele>
        <time>2022-05-27T11:46:15Z</time>
      </trkpt>
      <trkpt lat="46.60292" lon="-1.84795">
        <ele>3.2503790574251</ele>
        <time>2022-05-27T11:46:24Z</time>
      </trkpt>
      <trkpt lat="46.60303" lon="-1.84725">
        <ele>2.2517991381021</ele>
        <time>2022-05-27T11:46:33Z</time>
      </trkpt>
      <trkpt lat="46.60323" lon="-1.84669">
        <ele>0.25322783438141</ele>
        <time>2022-05-27T11:46:43Z</time>
      </trkpt>
      <trkpt lat="46.60336" lon="-1.84603">
        <ele>1.2546218860689</ele>
        <time>2022-05-27T11:46:53Z</time>
      </trkpt>
      <trkpt lat="46.60345" lon="-1.84537">
        <ele>1.2559445808096</ele>
        <time>2022-05-27T11:47:02Z</time>
      </trkpt>
      <trkpt lat="46.60341" lon="-1.84483">
        <ele>1.2567256023612</ele>
        <time>2022-05-27T11:47:11Z</time>
      </trkpt>
      <trkpt lat="46.60341" lon="-1.84482">
        <ele>1.2567568448801</ele>
        <time>2022-05-27T11:47:25Z</time>
      </trkpt>
      <trkpt lat="46.60341" lon="-1.84482">
        <ele>1.2567568448801</ele>
        <time>2022-05-27T11:47:25Z</time>
      </trkpt>
      <trkpt lat="46.60337" lon="-1.8448">
        <ele>1.2566815210345</ele>
        <time>2022-05-27T11:48:19Z</time>
      </trkpt>
      <trkpt lat="46.60323" lon="-1.84477">
        <ele>1.2563742311407</ele>
        <time>2022-05-27T11:48:35Z</time>
      </trkpt>
      <trkpt lat="46.60287" lon="-1.8448">
        <ele>2.2554456110881</ele>
        <time>2022-05-27T11:48:44Z</time>
      </trkpt>
      <trkpt lat="46.60239" lon="-1.84484">
        <ele>6.2541874018586</ele>
        <time>2022-05-27T11:48:54Z</time>
      </trkpt>
      <trkpt lat="46.60203" lon="-1.84468">
        <ele>9.2535485600263</ele>
        <time>2022-05-27T11:49:03Z</time>
      </trkpt>
      <trkpt lat="46.6017" lon="-1.84456">
        <ele>11.252931043067</ele>
        <time>2022-05-27T11:49:12Z</time>
      </trkpt>
      <trkpt lat="46.60134" lon="-1.84446">
        <ele>13.252203567997</ele>
        <time>2022-05-27T11:49:22Z</time>
      </trkpt>
      <trkpt lat="46.60093" lon="-1.84436">
        <ele>13.251347473717</ele>
        <time>2022-05-27T11:49:32Z</time>
      </trkpt>
      <trkpt lat="46.60053" lon="-1.84432">
        <ele>14.250393761701</ele>
        <time>2022-05-27T11:49:41Z</time>
      </trkpt>
      <trkpt lat="46.59999" lon="-1.84428">
        <ele>13.249111184186</ele>
        <time>2022-05-27T11:49:51Z</time>
      </trkpt>
      <trkpt lat="46.59971" lon="-1.84428">
        <ele>12.248416559381</ele>
        <time>2022-05-27T11:50:00Z</time>
      </trkpt>
      <trkpt lat="46.59953" lon="-1.84427">
        <ele>7.2479880834118</ele>
        <time>2022-05-27T11:51:57Z</time>
      </trkpt>
      <trkpt lat="46.59912" lon="-1.84435">
        <ele>9.2468577391524</ele>
        <time>2022-05-27T11:52:06Z</time>
      </trkpt>
      <trkpt lat="46.59867" lon="-1.84471">
        <ele>8.2451543332607</ele>
        <time>2022-05-27T11:52:15Z</time>
      </trkpt>
      <trkpt lat="46.5982" lon="-1.84456">
        <ele>9.2442243453129</ele>
        <time>2022-05-27T11:52:24Z</time>
      </trkpt>
      <trkpt lat="46.59791" lon="-1.844">
        <ele>7.2443994565409</ele>
        <time>2022-05-27T11:52:34Z</time>
      </trkpt>
      <trkpt lat="46.59768" lon="-1.84339">
        <ele>5.2447763516043</ele>
        <time>2022-05-27T11:52:43Z</time>
      </trkpt>
      <trkpt lat="46.59741" lon="-1.84271">
        <ele>3.245140343517</ele>
        <time>2022-05-27T11:52:53Z</time>
      </trkpt>
      <trkpt lat="46.59707" lon="-1.84197">
        <ele>4.2454360364221</ele>
        <time>2022-05-27T11:53:03Z</time>
      </trkpt>
      <trkpt lat="46.59679" lon="-1.84142">
        <ele>5.245567388062</ele>
        <time>2022-05-27T11:53:12Z</time>
      </trkpt>
      <trkpt lat="46.59655" lon="-1.84089">
        <ele>5.2457963622269</ele>
        <time>2022-05-27T11:53:21Z</time>
      </trkpt>
      <trkpt lat="46.59631" lon="-1.84024">
        <ele>4.2461836007607</ele>
        <time>2022-05-27T11:53:30Z</time>
      </trkpt>
      <trkpt lat="46.59624" lon="-1.83956">
        <ele>3.2470648824541</ele>
        <time>2022-05-27T11:53:39Z</time>
      </trkpt>
      <trkpt lat="46.59598" lon="-1.83895">
        <ele>3.2473069509404</ele>
        <time>2022-05-27T11:53:48Z</time>
      </trkpt>
      <trkpt lat="46.59569" lon="-1.83839">
        <ele>4.2474180796659</ele>
        <time>2022-05-27T11:53:57Z</time>
      </trkpt>
      <trkpt lat="46.5955" lon="-1.83769">
        <ele>3.2479957786489</ele>
        <time>2022-05-27T11:54:07Z</time>
      </trkpt>
      <trkpt lat="46.59546" lon="-1.83701">
        <ele>1.2489569350296</ele>
        <time>2022-05-27T11:54:16Z</time>
      </trkpt>
      <trkpt lat="46.59554" lon="-1.83623">
        <ele>1.2503449616763</ele>
        <time>2022-05-27T11:54:26Z</time>
      </trkpt>
      <trkpt lat="46.59553" lon="-1.83553">
        <ele>2.2513991260262</ele>
        <time>2022-05-27T11:54:36Z</time>
      </trkpt>
      <trkpt lat="46.59549" lon="-1.83492">
        <ele>2.2522134605933</ele>
        <time>2022-05-27T11:54:45Z</time>
      </trkpt>
      <trkpt lat="46.59548" lon="-1.83432">
        <ele>1.2531122461782</ele>
        <time>2022-05-27T11:54:54Z</time>
      </trkpt>
      <trkpt lat="46.59558" lon="-1.83369">
        <ele>0.25433295045893</ele>
        <time>2022-05-27T11:55:03Z</time>
      </trkpt>
      <trkpt lat="46.5956" lon="-1.83316">
        <ele>-0.74481097834409</ele>
        <time>2022-05-27T11:55:12Z</time>
      </trkpt>
      <trkpt lat="46.59556" lon="-1.83301">
        <ele>0.25532742447831</ele>
        <time>2022-05-27T11:55:24Z</time>
      </trkpt>
      <trkpt lat="46.59556" lon="-1.83301">
        <ele>0.25532742447831</ele>
        <time>2022-05-27T11:55:24Z</time>
      </trkpt>
      <trkpt lat="46.59556" lon="-1.83301">
        <ele>0.25532742447831</ele>
        <time>2022-05-27T11:55:58Z</time>
      </trkpt>
      <trkpt lat="46.5954" lon="-1.83306">
        <ele>1.2548221183108</ele>
        <time>2022-05-27T11:56:18Z</time>
      </trkpt>
      <trkpt lat="46.59503" lon="-1.83331">
        <ele>4.2534636421091</ele>
        <time>2022-05-27T11:56:28Z</time>
      </trkpt>
      <trkpt lat="46.59474" lon="-1.83349">
        <ele>5.2523945043734</ele>
        <time>2022-05-27T11:56:37Z</time>
      </trkpt>
      <trkpt lat="46.59459" lon="-1.83358">
        <ele>3.2518697618814</ele>
        <time>2022-05-27T11:57:42Z</time>
      </trkpt>
      <trkpt lat="46.59429" lon="-1.83379">
        <ele>0.25075167021276</ele>
        <time>2022-05-27T11:57:51Z</time>
      </trkpt>
      <trkpt lat="46.59387" lon="-1.8337">
        <ele>2.2497776989908</ele>
        <time>2022-05-27T11:58:00Z</time>
      </trkpt>
      <trkpt lat="46.5934" lon="-1.83349">
        <ele>2.2488421233566</ele>
        <time>2022-05-27T11:58:09Z</time>
      </trkpt>
      <trkpt lat="46.59291" lon="-1.83331">
        <ele>2.2478020788029</ele>
        <time>2022-05-27T11:58:18Z</time>
      </trkpt>
      <trkpt lat="46.59268" lon="-1.83344">
        <ele>3.2469740666288</ele>
        <time>2022-05-27T11:58:28Z</time>
      </trkpt>
      <trkpt lat="46.59269" lon="-1.83396">
        <ele>2.2462528230897</ele>
        <time>2022-05-27T11:58:37Z</time>
      </trkpt>
      <trkpt lat="46.59256" lon="-1.83452">
        <ele>3.2450690765703</ele>
        <time>2022-05-27T11:58:46Z</time>
      </trkpt>
      <trkpt lat="46.5923" lon="-1.83509">
        <ele>6.2435252853158</ele>
        <time>2022-05-27T11:58:56Z</time>
      </trkpt>
      <trkpt lat="46.59187" lon="-1.8352">
        <ele>7.2422293757771</ele>
        <time>2022-05-27T11:59:05Z</time>
      </trkpt>
      <trkpt lat="46.59141" lon="-1.8356">
        <ele>5.2404402347058</ele>
        <time>2022-05-27T11:59:15Z</time>
      </trkpt>
      <trkpt lat="46.59107" lon="-1.83607">
        <ele>4.2388636253465</ele>
        <time>2022-05-27T11:59:24Z</time>
      </trkpt>
      <trkpt lat="46.59077" lon="-1.83667">
        <ele>8.2371986739405</ele>
        <time>2022-05-27T11:59:34Z</time>
      </trkpt>
      <trkpt lat="46.59049" lon="-1.83719">
        <ele>7.2357332371812</ele>
        <time>2022-05-27T11:59:43Z</time>
      </trkpt>
      <trkpt lat="46.5901" lon="-1.83759">
        <ele>6.2341289005753</ele>
        <time>2022-05-27T11:59:52Z</time>
      </trkpt>
      <trkpt lat="46.58973" lon="-1.83767">
        <ele>4.233055840141</ele>
        <time>2022-05-27T12:00:02Z</time>
      </trkpt>
      <trkpt lat="46.58937" lon="-1.83781">
        <ele>0.23190255692245</ele>
        <time>2022-05-27T12:00:11Z</time>
      </trkpt>
      <trkpt lat="46.58899" lon="-1.83799">
        <ele>0.23068114242525</ele>
        <time>2022-05-27T12:00:20Z</time>
      </trkpt>
      <trkpt lat="46.58856" lon="-1.83823">
        <ele>-3.7707633381543</ele>
        <time>2022-05-27T12:00:29Z</time>
      </trkpt>
      <trkpt lat="46.58815" lon="-1.83839">
        <ele>-7.7720613591601</ele>
        <time>2022-05-27T12:00:38Z</time>
      </trkpt>
      <trkpt lat="46.58771" lon="-1.8385">
        <ele>-7.7733650180723</ele>
        <time>2022-05-27T12:00:47Z</time>
      </trkpt>
      <trkpt lat="46.58724" lon="-1.83873">
        <ele>-5.7749064742659</ele>
        <time>2022-05-27T12:00:56Z</time>
      </trkpt>
      <trkpt lat="46.58682" lon="-1.83885">
        <ele>-4.7761531625276</ele>
        <time>2022-05-27T12:01:06Z</time>
      </trkpt>
      <trkpt lat="46.58649" lon="-1.83892">
        <ele>-3.7770938968935</ele>
        <time>2022-05-27T12:01:15Z</time>
      </trkpt>
      <trkpt lat="46.586" lon="-1.83931">
        <ele>-6.7788835772984</ele>
        <time>2022-05-27T12:01:25Z</time>
      </trkpt>
      <trkpt lat="46.5855" lon="-1.83956">
        <ele>-7.7805244357569</ele>
        <time>2022-05-27T12:01:35Z</time>
      </trkpt>
      <trkpt lat="46.58512" lon="-1.83958">
        <ele>-6.7815283336748</ele>
        <time>2022-05-27T12:01:44Z</time>
      </trkpt>
      <trkpt lat="46.58474" lon="-1.83933">
        <ele>-5.7821632527089</ele>
        <time>2022-05-27T12:01:53Z</time>
      </trkpt>
      <trkpt lat="46.58434" lon="-1.83908">
        <ele>-3.7828462846725</ele>
        <time>2022-05-27T12:02:02Z</time>
      </trkpt>
      <trkpt lat="46.58401" lon="-1.83865">
        <ele>0.2168834044142</ele>
        <time>2022-05-27T12:02:12Z</time>
      </trkpt>
      <trkpt lat="46.5837" lon="-1.83822">
        <ele>2.2166525787931</ele>
        <time>2022-05-27T12:02:21Z</time>
      </trkpt>
      <trkpt lat="46.58346" lon="-1.83776">
        <ele>1.2166464736059</ele>
        <time>2022-05-27T12:02:30Z</time>
      </trkpt>
      <trkpt lat="46.58306" lon="-1.83761">
        <ele>-0.78418737607335</ele>
        <time>2022-05-27T12:02:39Z</time>
      </trkpt>
      <trkpt lat="46.58262" lon="-1.83791">
        <ele>-0.78571878336665</ele>
        <time>2022-05-27T12:02:48Z</time>
      </trkpt>
      <trkpt lat="46.58234" lon="-1.83756">
        <ele>-0.78600659258414</ele>
        <time>2022-05-27T12:02:58Z</time>
      </trkpt>
      <trkpt lat="46.58206" lon="-1.83728">
        <ele>0.21363056861719</ele>
        <time>2022-05-27T12:03:07Z</time>
      </trkpt>
      <trkpt lat="46.58175" lon="-1.8372">
        <ele>0.21294573298835</ele>
        <time>2022-05-27T12:03:16Z</time>
      </trkpt>
      <trkpt lat="46.58123" lon="-1.83729">
        <ele>0.21147803350057</ele>
        <time>2022-05-27T12:03:26Z</time>
      </trkpt>
      <trkpt lat="46.58096" lon="-1.83724">
        <ele>2.2108321208213</ele>
        <time>2022-05-27T12:03:35Z</time>
      </trkpt>
      <trkpt lat="46.58069" lon="-1.83697">
        <ele>1.2104882139355</ele>
        <time>2022-05-27T12:03:44Z</time>
      </trkpt>
      <trkpt lat="46.58051" lon="-1.83649">
        <ele>2.2106390089014</ele>
        <time>2022-05-27T12:03:53Z</time>
      </trkpt>
      <trkpt lat="46.58031" lon="-1.83589">
        <ele>4.2108850615559</ele>
        <time>2022-05-27T12:04:03Z</time>
      </trkpt>
      <trkpt lat="46.58016" lon="-1.83529">
        <ele>2.2112537262391</ele>
        <time>2022-05-27T12:04:12Z</time>
      </trkpt>
      <trkpt lat="46.58003" lon="-1.83472">
        <ele>3.2116290975575</ele>
        <time>2022-05-27T12:04:22Z</time>
      </trkpt>
      <trkpt lat="46.57978" lon="-1.83426">
        <ele>3.2115578467273</ele>
        <time>2022-05-27T12:04:31Z</time>
      </trkpt>
      <trkpt lat="46.57954" lon="-1.83386">
        <ele>5.2114279666865</ele>
        <time>2022-05-27T12:04:40Z</time>
      </trkpt>
      <trkpt lat="46.57932" lon="-1.83321">
        <ele>4.2116747737012</ele>
        <time>2022-05-27T12:04:49Z</time>
      </trkpt>
      <trkpt lat="46.57903" lon="-1.83252">
        <ele>1.2117854181493</ele>
        <time>2022-05-27T12:04:59Z</time>
      </trkpt>
      <trkpt lat="46.5787" lon="-1.83198">
        <ele>-1.7884239605473</ele>
        <time>2022-05-27T12:05:08Z</time>
      </trkpt>
      <trkpt lat="46.57836" lon="-1.83149">
        <ele>-1.7887276185176</ele>
        <time>2022-05-27T12:05:17Z</time>
      </trkpt>
      <trkpt lat="46.57831" lon="-1.83085">
        <ele>1.2119271020549</ele>
        <time>2022-05-27T12:05:27Z</time>
      </trkpt>
      <trkpt lat="46.57834" lon="-1.83031">
        <ele>2.2126963717683</ele>
        <time>2022-05-27T12:05:36Z</time>
      </trkpt>
      <trkpt lat="46.57827" lon="-1.82951">
        <ele>2.213507624331</ele>
        <time>2022-05-27T12:05:46Z</time>
      </trkpt>
      <trkpt lat="46.57816" lon="-1.82885">
        <ele>4.214028846965</ele>
        <time>2022-05-27T12:05:56Z</time>
      </trkpt>
      <trkpt lat="46.57811" lon="-1.82835">
        <ele>3.2145109645284</ele>
        <time>2022-05-27T12:06:05Z</time>
      </trkpt>
      <trkpt lat="46.57794" lon="-1.82783">
        <ele>3.2146913616172</ele>
        <time>2022-05-27T12:06:14Z</time>
      </trkpt>
      <trkpt lat="46.57785" lon="-1.82715">
        <ele>2.2152922650096</ele>
        <time>2022-05-27T12:06:23Z</time>
      </trkpt>
      <trkpt lat="46.5777" lon="-1.82649">
        <ele>-1.7843045363062</ele>
        <time>2022-05-27T12:06:32Z</time>
      </trkpt>
      <trkpt lat="46.57759" lon="-1.82594">
        <ele>-0.78393099446246</ele>
        <time>2022-05-27T12:06:41Z</time>
      </trkpt>
      <trkpt lat="46.57737" lon="-1.82536">
        <ele>-2.7838055786455</ele>
        <time>2022-05-27T12:06:50Z</time>
      </trkpt>
      <trkpt lat="46.57701" lon="-1.82512">
        <ele>-1.7845240185762</ele>
        <time>2022-05-27T12:06:59Z</time>
      </trkpt>
      <trkpt lat="46.57652" lon="-1.8249">
        <ele>-0.78561209238211</ele>
        <time>2022-05-27T12:07:08Z</time>
      </trkpt>
      <trkpt lat="46.57629" lon="-1.8242">
        <ele>-1.7854304732709</ele>
        <time>2022-05-27T12:07:18Z</time>
      </trkpt>
      <trkpt lat="46.57617" lon="-1.82357">
        <ele>-2.784991974219</ele>
        <time>2022-05-27T12:07:27Z</time>
      </trkpt>
      <trkpt lat="46.57622" lon="-1.82305">
        <ele>-0.78421295801544</ele>
        <time>2022-05-27T12:07:37Z</time>
      </trkpt>
      <trkpt lat="46.57627" lon="-1.82265">
        <ele>-1.7835883290402</ele>
        <time>2022-05-27T12:07:46Z</time>
      </trkpt>
      <trkpt lat="46.57598" lon="-1.82256">
        <ele>-1.7842842848036</ele>
        <time>2022-05-27T12:07:55Z</time>
      </trkpt>
      <trkpt lat="46.57556" lon="-1.82237">
        <ele>-0.78523556878594</ele>
        <time>2022-05-27T12:08:04Z</time>
      </trkpt>
      <trkpt lat="46.57512" lon="-1.82216">
        <ele>-0.78625131719801</ele>
        <time>2022-05-27T12:08:13Z</time>
      </trkpt>
      <trkpt lat="46.57471" lon="-1.82193">
        <ele>-0.78715264973622</ele>
        <time>2022-05-27T12:08:22Z</time>
      </trkpt>
      <trkpt lat="46.57425" lon="-1.82171">
        <ele>-1.7881945976247</ele>
        <time>2022-05-27T12:08:31Z</time>
      </trkpt>
      <trkpt lat="46.5738" lon="-1.82135">
        <ele>-0.7890467963812</ele>
        <time>2022-05-27T12:08:41Z</time>
      </trkpt>
      <trkpt lat="46.57342" lon="-1.82109">
        <ele>1.210177208634</ele>
        <time>2022-05-27T12:08:50Z</time>
      </trkpt>
      <trkpt lat="46.57291" lon="-1.8212">
        <ele>0.20857744706376</ele>
        <time>2022-05-27T12:08:59Z</time>
      </trkpt>
      <trkpt lat="46.57246" lon="-1.8213">
        <ele>5.2071709058975</ele>
        <time>2022-05-27T12:09:08Z</time>
      </trkpt>
      <trkpt lat="46.57213" lon="-1.82098">
        <ele>6.2065974319467</ele>
        <time>2022-05-27T12:09:17Z</time>
      </trkpt>
      <trkpt lat="46.57195" lon="-1.82042">
        <ele>0.20672471610511</ele>
        <time>2022-05-27T12:09:26Z</time>
      </trkpt>
      <trkpt lat="46.57181" lon="-1.81986">
        <ele>0.20696630047308</ele>
        <time>2022-05-27T12:09:35Z</time>
      </trkpt>
      <trkpt lat="46.57157" lon="-1.81925">
        <ele>0.20697723367507</ele>
        <time>2022-05-27T12:09:44Z</time>
      </trkpt>
      <trkpt lat="46.57121" lon="-1.81887">
        <ele>-1.793632491813</ele>
        <time>2022-05-27T12:09:53Z</time>
      </trkpt>
      <trkpt lat="46.57076" lon="-1.81862">
        <ele>-0.7946369123877</ele>
        <time>2022-05-27T12:10:03Z</time>
      </trkpt>
      <trkpt lat="46.5703" lon="-1.81859">
        <ele>1.2040411867621</ele>
        <time>2022-05-27T12:10:13Z</time>
      </trkpt>
      <trkpt lat="46.56984" lon="-1.8188">
        <ele>2.2024802257114</ele>
        <time>2022-05-27T12:10:22Z</time>
      </trkpt>
      <trkpt lat="46.56951" lon="-1.81928">
        <ele>9.2009798047792</ele>
        <time>2022-05-27T12:10:31Z</time>
      </trkpt>
      <trkpt lat="46.56929" lon="-1.81984">
        <ele>14.199721253348</ele>
        <time>2022-05-27T12:10:40Z</time>
      </trkpt>
      <trkpt lat="46.56909" lon="-1.82033">
        <ele>17.198624047254</ele>
        <time>2022-05-27T12:10:49Z</time>
      </trkpt>
      <trkpt lat="46.56881" lon="-1.82029">
        <ele>14.197852737028</ele>
        <time>2022-05-27T12:10:58Z</time>
      </trkpt>
      <trkpt lat="46.56851" lon="-1.82">
        <ele>10.197296451114</ele>
        <time>2022-05-27T12:11:07Z</time>
      </trkpt>
      <trkpt lat="46.5684" lon="-1.81964">
        <ele>8.1973764258313</ele>
        <time>2022-05-27T12:11:16Z</time>
      </trkpt>
      <trkpt lat="46.56841" lon="-1.81907">
        <ele>9.1980313925832</ele>
        <time>2022-05-27T12:11:25Z</time>
      </trkpt>
      <trkpt lat="46.56829" lon="-1.81842">
        <ele>9.1984036055635</ele>
        <time>2022-05-27T12:11:35Z</time>
      </trkpt>
      <trkpt lat="46.568" lon="-1.81789">
        <ele>9.1981462695256</ele>
        <time>2022-05-27T12:11:45Z</time>
      </trkpt>
      <trkpt lat="46.56768" lon="-1.81748">
        <ele>6.1976443199774</ele>
        <time>2022-05-27T12:11:54Z</time>
      </trkpt>
      <trkpt lat="46.56732" lon="-1.817">
        <ele>5.19710140121</ele>
        <time>2022-05-27T12:12:04Z</time>
      </trkpt>
      <trkpt lat="46.56701" lon="-1.81664">
        <ele>2.196587340077</ele>
        <time>2022-05-27T12:12:13Z</time>
      </trkpt>
      <trkpt lat="46.56667" lon="-1.81615">
        <ele>1.1961038889614</ele>
        <time>2022-05-27T12:12:23Z</time>
      </trkpt>
      <trkpt lat="46.56649" lon="-1.8156">
        <ele>2.1961756751021</ele>
        <time>2022-05-27T12:12:32Z</time>
      </trkpt>
      <trkpt lat="46.56636" lon="-1.815">
        <ele>5.1964132002483</ele>
        <time>2022-05-27T12:12:41Z</time>
      </trkpt>
      <trkpt lat="46.56618" lon="-1.81447">
        <ele>2.1964374718163</ele>
        <time>2022-05-27T12:12:50Z</time>
      </trkpt>
      <trkpt lat="46.56587" lon="-1.81388">
        <ele>2.1961380488444</ele>
        <time>2022-05-27T12:13:00Z</time>
      </trkpt>
      <trkpt lat="46.56553" lon="-1.81338">
        <ele>4.195677818668</ele>
        <time>2022-05-27T12:13:10Z</time>
      </trkpt>
      <trkpt lat="46.5651" lon="-1.81314">
        <ele>3.1946479560356</ele>
        <time>2022-05-27T12:13:20Z</time>
      </trkpt>
      <trkpt lat="46.56485" lon="-1.81275">
        <ele>3.1942705457971</ele>
        <time>2022-05-27T12:13:29Z</time>
      </trkpt>
      <trkpt lat="46.56454" lon="-1.81234">
        <ele>1.1937904475991</ele>
        <time>2022-05-27T12:13:39Z</time>
      </trkpt>
      <trkpt lat="46.56432" lon="-1.8121">
        <ele>0.19336540539953</ele>
        <time>2022-05-27T12:13:48Z</time>
      </trkpt>
      <trkpt lat="46.5643" lon="-1.81206">
        <ele>-0.8066604113103</ele>
        <time>2022-05-27T12:14:12Z</time>
      </trkpt>
      <trkpt lat="46.5643" lon="-1.81206">
        <ele>-0.8066604113103</ele>
        <time>2022-05-27T12:14:12Z</time>
      </trkpt>
    </trkseg>
  </trk>
</gpx>